createdAt,value
2022-08-09T00:00:04.291Z,7.27
2022-08-09T00:01:43.083Z,6.30
2022-08-09T00:03:56.927Z,7.70
2022-08-09T00:05:03.280Z,6.73
2022-08-09T00:06:37.222Z,6.93
2022-08-09T00:08:01.370Z,7.27
2022-08-09T00:09:23.804Z,6.60
2022-08-09T00:10:47.114Z,7.13
2022-08-09T00:12:22.339Z,7.43
2022-08-09T00:13:45.788Z,11.50
2022-08-09T00:15:09.666Z,11.13
2022-08-09T00:16:38.501Z,11.10
2022-08-09T00:18:10.703Z,9.80
2022-08-09T00:19:34.723Z,8.83
2022-08-09T00:20:57.017Z,9.70
2022-08-09T00:22:19.960Z,8.07
2022-08-09T00:23:55.161Z,8.27
2022-08-09T00:25:23.544Z,8.27
2022-08-09T00:26:56.093Z,7.43
2022-08-09T00:28:19.666Z,9.03
2022-08-09T00:30:23.438Z,8.57
2022-08-09T00:31:57.109Z,8.57
2022-08-09T00:33:09.002Z,6.80
2022-08-09T00:34:33.474Z,6.80
2022-08-09T00:35:56.042Z,7.33
2022-08-09T00:37:20.287Z,7.30
2022-08-09T00:38:42.431Z,7.67
2022-08-09T00:40:14.161Z,7.20
2022-08-09T00:44:10.123Z,7.20
2022-08-09T00:44:13.636Z,7.37
2022-08-09T00:45:15.745Z,7.30
2022-08-09T00:46:55.654Z,6.73
2022-08-09T00:48:20.222Z,7.27
2022-08-09T00:49:42.575Z,8.20
2022-08-09T00:51:16.642Z,8.37
2022-08-09T00:52:39.777Z,8.57
2022-08-09T00:54:03.699Z,7.43
2022-08-09T00:56:04.206Z,8.53
2022-08-09T00:57:08.804Z,7.47
2022-08-09T00:58:35.730Z,8.10
2022-08-09T00:59:59.349Z,8.17
2022-08-09T01:01:32.493Z,8.20
2022-08-09T01:03:32.658Z,8.37
2022-08-09T01:05:14.210Z,7.83
2022-08-09T01:06:53.863Z,7.80
2022-08-09T01:08:31.711Z,7.50
2022-08-09T01:10:05.718Z,8.00
2022-08-09T01:11:34.589Z,8.70
2022-08-09T01:13:08.826Z,8.70
2022-08-09T01:14:52.908Z,8.70
2022-08-09T01:16:17.255Z,8.77
2022-08-09T01:17:45.451Z,8.50
2022-08-09T01:19:17.082Z,8.10
2022-08-09T01:21:11.067Z,7.60
2022-08-09T01:22:38.758Z,8.40
2022-08-09T01:24:05.502Z,7.60
2022-08-09T01:25:41.644Z,8.33
2022-08-09T01:27:15.890Z,8.57
2022-08-09T01:28:44.258Z,9.10
2022-08-09T01:30:33.619Z,8.07
2022-08-09T01:32:32.141Z,8.07
2022-08-09T01:33:38.406Z,8.03
2022-08-09T01:35:18.261Z,8.90
2022-08-09T01:36:48.078Z,7.80
2022-08-09T01:38:15.857Z,7.57
2022-08-09T01:39:41.120Z,7.53
2022-08-09T01:41:14.249Z,7.57
2022-08-09T01:42:38.351Z,7.77
2022-08-09T01:44:04.947Z,8.13
2022-08-09T01:45:28.400Z,8.07
2022-08-09T01:46:53.099Z,7.57
2022-08-09T01:48:17.267Z,8.60
2022-08-09T01:49:41.914Z,7.63
2022-08-09T01:51:22.919Z,9.03
2022-08-09T01:52:47.420Z,8.43
2022-08-09T01:54:16.148Z,7.80
2022-08-09T01:56:16.137Z,8.87
2022-08-09T01:57:45.849Z,10.17
2022-08-09T01:59:11.143Z,8.90
2022-08-09T02:00:39.646Z,9.50
2022-08-09T02:02:03.467Z,10.63
2022-08-09T02:03:29.771Z,11.33
2022-08-09T02:04:54.388Z,10.40
2022-08-09T02:06:39.952Z,10.50
2022-08-09T02:08:41.210Z,10.27
2022-08-09T02:10:07.010Z,10.90
2022-08-09T02:11:41.969Z,11.00
2022-08-09T02:13:08.169Z,12.47
2022-08-09T02:14:32.354Z,10.40
2022-08-09T02:15:56.877Z,11.20
2022-08-09T02:17:59.487Z,10.60
2022-08-09T02:19:07.297Z,11.10
2022-08-09T02:20:32.954Z,10.67
2022-08-09T02:22:00.803Z,11.70
2022-08-09T02:23:39.942Z,11.77
2022-08-09T02:25:11.150Z,10.97
2022-08-09T02:26:39.267Z,10.00
2022-08-09T02:28:13.271Z,10.10
2022-08-09T02:29:48.545Z,11.90
2022-08-09T02:31:21.158Z,11.80
2022-08-09T02:32:48.360Z,13.33
2022-08-09T02:34:25.774Z,12.50
2022-08-09T02:36:04.360Z,11.33
2022-08-09T02:37:31.891Z,11.40
2022-08-09T02:38:58.364Z,12.00
2022-08-09T02:40:27.119Z,11.13
2022-08-09T02:41:59.768Z,10.70
2022-08-09T02:43:28.711Z,10.40
2022-08-09T02:44:56.814Z,11.83
2022-08-09T02:46:19.229Z,11.10
2022-08-09T02:47:58.036Z,11.90
2022-08-09T02:49:27.156Z,10.73
2022-08-09T02:51:02.676Z,9.63
2022-08-09T02:52:35.245Z,10.57
2022-08-09T02:54:00.972Z,9.77
2022-08-09T02:55:46.538Z,10.40
2022-08-09T02:57:13.876Z,10.90
2022-08-09T02:58:46.383Z,10.73
2022-08-09T03:00:25.679Z,11.47
2022-08-09T03:02:05.950Z,10.40
2022-08-09T03:04:12.947Z,11.10
2022-08-09T03:05:16.560Z,12.70
2022-08-09T03:06:41.895Z,12.27
2022-08-09T03:08:08.956Z,12.07
2022-08-09T03:09:33.743Z,11.83
2022-08-09T03:10:57.101Z,11.00
2022-08-09T03:12:24.315Z,11.47
2022-08-09T03:13:59.428Z,10.70
2022-08-09T03:15:25.490Z,13.03
2022-08-09T03:17:08.537Z,11.30
2022-08-09T03:18:39.221Z,11.07
2022-08-09T03:20:11.149Z,12.40
2022-08-09T03:21:36.360Z,13.30
2022-08-09T03:23:10.527Z,14.23
2022-08-09T03:24:51.860Z,13.70
2022-08-09T03:26:17.511Z,13.93
2022-08-09T03:27:45.385Z,13.40
2022-08-09T03:29:13.422Z,12.13
2022-08-09T03:30:46.084Z,14.07
2022-08-09T03:32:11.717Z,12.30
2022-08-09T03:33:53.389Z,12.10
2022-08-09T03:35:44.429Z,11.43
2022-08-09T03:37:02.468Z,12.20
2022-08-09T03:38:33.077Z,11.83
2022-08-09T03:39:55.602Z,11.33
2022-08-09T03:41:18.867Z,11.90
2022-08-09T03:42:42.866Z,10.07
2022-08-09T03:44:08.801Z,11.37
2022-08-09T03:46:04.623Z,12.20
2022-08-09T03:47:13.410Z,10.97
2022-08-09T03:48:37.616Z,10.80
2022-08-09T03:50:27.748Z,9.90
2022-08-09T03:52:00.145Z,10.90
2022-08-09T03:53:32.392Z,11.57
2022-08-09T03:55:02.379Z,11.50
2022-08-09T03:56:31.196Z,12.30
2022-08-09T03:58:06.525Z,11.90
2022-08-09T03:59:53.441Z,12.00
2022-08-09T04:01:18.009Z,12.67
2022-08-09T04:02:44.916Z,11.50
2022-08-09T04:04:10.129Z,12.40
2022-08-09T04:05:40.480Z,13.00
2022-08-09T04:07:03.819Z,12.57
2022-08-09T04:08:29.050Z,12.90
2022-08-09T04:09:53.644Z,12.47
2022-08-09T04:11:16.059Z,12.10
2022-08-09T04:12:47.556Z,11.73
2022-08-09T04:14:52.986Z,10.80
2022-08-09T04:16:19.986Z,10.40
2022-08-09T04:17:37.905Z,10.13
2022-08-09T04:19:01.589Z,10.27
2022-08-09T04:20:24.144Z,10.20
2022-08-09T04:21:48.362Z,9.67
2022-08-09T04:23:17.315Z,9.30
2022-08-09T04:24:40.047Z,8.90
2022-08-09T04:26:03.814Z,8.93
2022-08-09T04:27:26.106Z,7.23
2022-08-09T04:28:52.430Z,7.03
2022-08-09T04:30:20.971Z,6.87
2022-08-09T04:31:47.448Z,7.40
2022-08-09T04:33:09.809Z,7.73
2022-08-09T04:34:34.351Z,8.40
2022-08-09T04:35:56.429Z,8.40
2022-08-09T04:37:18.464Z,9.10
2022-08-09T04:38:41.156Z,8.67
2022-08-09T04:40:05.983Z,9.70
2022-08-09T04:41:32.912Z,11.20
2022-08-09T04:42:56.915Z,11.67
2022-08-09T04:44:19.247Z,11.40
2022-08-09T04:45:53.935Z,11.50
2022-08-09T04:47:16.544Z,9.90
2022-08-09T04:48:38.623Z,10.50
2022-08-09T04:50:12.583Z,8.47
2022-08-09T04:51:36.205Z,8.60
2022-08-09T04:52:59.117Z,7.50
2022-08-09T04:54:22.175Z,9.70
2022-08-09T04:55:57.931Z,7.03
2022-08-09T04:57:21.395Z,7.80
2022-08-09T04:58:46.070Z,7.80
2022-08-09T05:00:13.551Z,7.23
2022-08-09T05:01:38.897Z,7.93
2022-08-09T05:03:30.778Z,7.17
2022-08-09T05:04:48.016Z,7.50
2022-08-09T05:06:18.251Z,7.80
2022-08-09T05:07:53.299Z,7.27
2022-08-09T05:09:15.893Z,7.37
2022-08-09T05:10:38.149Z,8.43
2022-08-09T05:12:03.639Z,8.00
2022-08-09T05:13:25.986Z,8.20
2022-08-09T05:14:49.079Z,8.20
2022-08-09T05:16:12.559Z,8.00
2022-08-09T05:18:39.732Z,6.70
2022-08-09T05:19:24.391Z,6.77
2022-08-09T05:20:49.068Z,7.47
2022-08-09T05:22:35.047Z,8.00
2022-08-09T05:24:01.003Z,7.97
2022-08-09T05:25:24.907Z,7.57
2022-08-09T05:26:51.048Z,7.03
2022-08-09T05:28:13.634Z,7.40
2022-08-09T05:29:35.784Z,7.00
2022-08-09T05:30:59.752Z,7.17
2022-08-09T05:32:32.060Z,6.80
2022-08-09T05:33:55.198Z,7.73
2022-08-09T05:35:17.544Z,6.97
2022-08-09T05:36:40.099Z,7.00
2022-08-09T05:38:05.013Z,8.33
2022-08-09T05:39:28.835Z,7.20
2022-08-09T05:40:51.960Z,7.10
2022-08-09T05:42:21.009Z,7.27
2022-08-09T05:43:45.186Z,6.20
2022-08-09T05:45:14.488Z,5.83
2022-08-09T05:46:37.050Z,6.80
2022-08-09T05:48:01.606Z,4.60
2022-08-09T05:50:23.310Z,5.00
2022-08-09T05:51:30.054Z,4.70
2022-08-09T05:52:53.548Z,4.80
2022-08-09T05:54:17.974Z,5.20
2022-08-09T05:55:40.084Z,4.27
2022-08-09T05:57:02.183Z,3.30
2022-08-09T05:58:28.425Z,3.73
2022-08-09T05:59:50.460Z,3.67
2022-08-09T06:01:16.015Z,3.33
2022-08-09T06:02:42.281Z,3.60
2022-08-09T06:04:08.701Z,3.07
2022-08-09T06:05:49.894Z,2.93
2022-08-09T06:07:21.655Z,3.90
2022-08-09T06:08:44.192Z,3.10
2022-08-09T06:10:18.008Z,3.50
2022-08-09T06:11:40.847Z,3.00
2022-08-09T06:13:18.824Z,3.10
2022-08-09T06:14:42.549Z,2.70
2022-08-09T06:16:05.751Z,2.90
2022-08-09T06:17:40.061Z,3.03
2022-08-09T06:19:03.769Z,3.60
2022-08-09T06:20:28.775Z,3.23
2022-08-09T06:21:58.934Z,3.20
2022-08-09T06:23:21.264Z,3.77
2022-08-09T06:24:44.344Z,3.80
2022-08-09T06:26:06.533Z,2.90
2022-08-09T06:27:42.667Z,3.23
2022-08-09T06:29:05.669Z,3.60
2022-08-09T06:30:27.849Z,3.20
2022-08-09T06:32:08.396Z,2.93
2022-08-09T06:33:41.447Z,3.13
2022-08-09T06:35:06.304Z,2.73
2022-08-09T06:36:29.881Z,3.30
2022-08-09T06:38:05.416Z,3.43
2022-08-09T06:39:39.662Z,3.03
2022-08-09T06:41:19.237Z,3.50
2022-08-09T06:42:45.152Z,3.00
2022-08-09T06:44:09.754Z,3.00
2022-08-09T06:46:06.862Z,3.60
2022-08-09T06:47:14.165Z,3.37
2022-08-09T06:48:37.162Z,3.17
2022-08-09T06:50:14.574Z,3.87
2022-08-09T06:51:41.335Z,3.53
2022-08-09T06:53:04.861Z,3.07
2022-08-09T06:54:26.992Z,3.20
2022-08-09T06:55:50.403Z,2.87
2022-08-09T06:57:12.616Z,3.17
2022-08-09T07:00:47.384Z,3.33
2022-08-09T07:00:56.196Z,3.27
2022-08-09T07:02:04.548Z,3.03
2022-08-09T07:03:28.940Z,3.30
2022-08-09T07:04:51.197Z,2.90
2022-08-09T07:06:13.423Z,2.83
2022-08-09T07:08:00.480Z,2.60
2022-08-09T07:09:56.122Z,3.03
2022-08-09T07:11:03.467Z,2.63
2022-08-09T07:12:38.523Z,3.10
2022-08-09T07:14:05.900Z,3.20
2022-08-09T07:16:35.234Z,2.97
2022-08-09T07:17:10.463Z,2.40
2022-08-09T07:18:34.367Z,2.90
2022-08-09T07:20:00.846Z,3.00
2022-08-09T07:21:22.903Z,2.90
2022-08-09T07:22:52.432Z,3.17
2022-08-09T07:24:15.727Z,2.97
2022-08-09T07:25:38.904Z,2.80
2022-08-09T07:27:21.051Z,2.60
2022-08-09T07:29:07.895Z,2.30
2022-08-09T07:30:32.823Z,2.77
2022-08-09T07:31:55.639Z,2.70
2022-08-09T07:33:19.799Z,2.80
2022-08-09T07:34:42.280Z,2.40
2022-08-09T07:36:05.070Z,3.00
2022-08-09T07:37:27.155Z,2.30
2022-08-09T07:38:58.212Z,2.33
2022-08-09T07:40:26.772Z,2.77
2022-08-09T07:41:50.199Z,2.60
2022-08-09T07:43:16.859Z,2.73
2022-08-09T07:44:51.153Z,2.87
2022-08-09T07:46:17.289Z,2.50
2022-08-09T07:48:00.815Z,2.90
2022-08-09T07:49:23.799Z,3.07
2022-08-09T07:50:52.957Z,3.20
2022-08-09T07:52:25.508Z,3.40
2022-08-09T07:54:05.091Z,3.10
2022-08-09T07:55:29.055Z,2.43
2022-08-09T07:57:04.411Z,2.43
2022-08-09T07:58:34.045Z,2.50
2022-08-09T08:00:03.407Z,2.47
2022-08-09T08:01:34.118Z,2.40
2022-08-09T08:02:57.405Z,2.33
2022-08-09T08:04:20.168Z,2.93
2022-08-09T08:05:58.318Z,2.60
2022-08-09T08:08:06.129Z,2.50
2022-08-09T08:09:05.042Z,2.50
2022-08-09T08:10:34.593Z,2.90
2022-08-09T08:12:11.352Z,2.60
2022-08-09T08:13:56.345Z,2.67
2022-08-09T08:15:23.014Z,2.83
2022-08-09T08:16:51.104Z,3.00
2022-08-09T08:18:23.374Z,3.00
2022-08-09T08:19:47.654Z,2.53
2022-08-09T08:21:14.010Z,2.37
2022-08-09T08:22:37.714Z,2.30
2022-08-09T08:24:01.247Z,2.70
2022-08-09T08:25:43.769Z,2.70
2022-08-09T08:27:16.869Z,1.83
2022-08-09T08:28:40.671Z,2.27
2022-08-09T08:30:03.764Z,3.20
2022-08-09T08:32:02.387Z,2.13
2022-08-09T08:33:11.977Z,2.60
2022-08-09T08:34:40.420Z,1.87
2022-08-09T08:36:04.151Z,2.57
2022-08-09T08:37:40.738Z,1.97
2022-08-09T08:39:04.113Z,1.90
2022-08-09T08:40:26.271Z,2.10
2022-08-09T08:41:52.545Z,2.00
2022-08-09T08:43:14.939Z,2.10
2022-08-09T08:44:37.679Z,2.03
2022-08-09T08:46:31.990Z,2.40
2022-08-09T08:47:49.894Z,2.03
2022-08-09T08:49:26.787Z,1.80
2022-08-09T08:51:02.580Z,1.67
2022-08-09T08:52:57.457Z,2.40
2022-08-09T08:54:10.188Z,2.00
2022-08-09T08:55:43.756Z,1.90
2022-08-09T08:57:11.455Z,1.60
2022-08-09T08:58:35.921Z,1.87
2022-08-09T08:59:59.141Z,1.50
2022-08-09T09:01:24.900Z,1.60
2022-08-09T09:03:08.733Z,2.00
2022-08-09T09:04:47.777Z,2.60
2022-08-09T09:06:17.385Z,1.80
2022-08-09T09:07:44.793Z,2.40
2022-08-09T09:09:21.071Z,1.83
2022-08-09T09:10:50.943Z,1.97
2022-08-09T09:12:16.618Z,1.70
2022-08-09T09:13:55.531Z,2.03
2022-08-09T09:15:28.580Z,1.90
2022-08-09T09:16:51.228Z,2.03
2022-08-09T09:18:17.438Z,1.80
2022-08-09T09:19:41.976Z,2.03
2022-08-09T09:21:07.317Z,1.83
2022-08-09T09:23:01.723Z,1.50
2022-08-09T09:24:31.614Z,1.90
2022-08-09T09:26:04.562Z,1.57
2022-08-09T09:28:05.842Z,1.83
2022-08-09T09:29:46.050Z,1.93
2022-08-09T09:32:01.868Z,1.80
2022-08-09T09:33:16.496Z,1.70
2022-08-09T09:34:39.559Z,2.53
2022-08-09T09:36:20.520Z,1.53
2022-08-09T09:37:46.040Z,1.93
2022-08-09T09:39:11.680Z,1.63
2022-08-09T09:40:46.334Z,1.70
2022-08-09T09:42:21.471Z,1.90
2022-08-09T09:44:11.023Z,1.70
2022-08-09T09:45:29.309Z,1.80
2022-08-09T09:46:57.171Z,1.90
2022-08-09T09:48:21.509Z,1.83
2022-08-09T09:50:07.516Z,2.20
2022-08-09T09:51:40.144Z,1.43
2022-08-09T09:53:03.664Z,1.70
2022-08-09T09:54:40.081Z,2.30
2022-08-09T09:56:30.933Z,1.73
2022-08-09T09:58:16.557Z,2.20
2022-08-09T09:59:47.455Z,1.83
2022-08-09T10:01:36.796Z,1.77
2022-08-09T10:02:59.933Z,1.70
2022-08-09T10:04:30.443Z,1.53
2022-08-09T10:06:04.753Z,1.60
2022-08-09T10:07:28.207Z,1.60
2022-08-09T10:08:59.725Z,1.60
2022-08-09T10:10:31.616Z,2.10
2022-08-09T10:12:07.595Z,1.60
2022-08-09T10:13:43.303Z,1.80
2022-08-09T10:15:50.966Z,1.93
2022-08-09T10:17:40.123Z,1.80
2022-08-09T10:18:54.493Z,2.23
2022-08-09T10:20:26.939Z,2.20
2022-08-09T10:21:54.757Z,2.30
2022-08-09T10:23:23.642Z,2.10
2022-08-09T10:24:46.193Z,2.10
2022-08-09T10:26:13.480Z,2.10
2022-08-09T10:27:57.686Z,1.83
2022-08-09T10:29:36.075Z,1.73
2022-08-09T10:32:45.684Z,2.00
2022-08-09T10:34:32.764Z,1.40
2022-08-09T10:35:55.016Z,1.70
2022-08-09T10:37:19.141Z,1.87
2022-08-09T10:38:57.176Z,1.90
2022-08-09T10:40:32.517Z,1.33
2022-08-09T10:41:57.463Z,2.00
2022-08-09T10:43:20.361Z,2.00
2022-08-09T10:44:48.102Z,2.10
2022-08-09T10:46:55.676Z,2.60
2022-08-09T10:48:47.635Z,2.03
2022-08-09T10:50:57.056Z,1.87
2022-08-09T10:52:36.584Z,1.63
2022-08-09T10:54:10.007Z,1.90
2022-08-09T10:55:55.044Z,1.30
2022-08-09T10:57:17.630Z,1.33
2022-08-09T10:58:42.941Z,1.70
2022-08-09T11:00:41.755Z,1.77
2022-08-09T11:03:13.787Z,2.20
2022-08-09T11:04:30.528Z,1.60
2022-08-09T11:06:15.625Z,2.13
2022-08-09T11:07:56.963Z,1.90
2022-08-09T11:09:48.038Z,1.50
2022-08-09T11:11:11.148Z,1.60
2022-08-09T11:12:33.328Z,1.70
2022-08-09T11:14:41.877Z,1.40
2022-08-09T11:16:35.080Z,1.70
2022-08-09T11:18:03.807Z,1.70
2022-08-09T11:20:10.126Z,1.87
2022-08-09T11:22:10.587Z,2.17
2022-08-09T11:23:58.919Z,1.77
2022-08-09T11:25:44.595Z,1.50
2022-08-09T11:28:09.171Z,1.47
2022-08-09T11:30:04.584Z,1.40
2022-08-09T11:31:49.426Z,2.00
2022-08-09T11:33:19.033Z,1.70
2022-08-09T11:34:48.986Z,1.87
2022-08-09T11:36:35.763Z,1.50
2022-08-09T11:38:13.389Z,1.77
2022-08-09T11:40:05.870Z,1.73
2022-08-09T11:41:38.250Z,1.60
2022-08-09T11:43:02.292Z,1.60
2022-08-09T11:44:45.329Z,2.07
2022-08-09T11:46:07.814Z,2.30
2022-08-09T11:47:46.064Z,1.97
2022-08-09T11:49:08.255Z,2.07
2022-08-09T11:53:00.982Z,1.70
2022-08-09T11:53:58.060Z,1.70
2022-08-09T11:54:43.510Z,1.77
2022-08-09T11:56:20.781Z,2.10
2022-08-09T11:58:32.667Z,2.20
2022-08-09T11:59:55.979Z,1.83
2022-08-09T12:02:01.345Z,2.20
2022-08-09T12:03:31.888Z,1.70
2022-08-09T12:04:45.276Z,1.93
2022-08-09T12:06:26.652Z,1.90
2022-08-09T12:07:54.591Z,2.00
2022-08-09T12:09:20.902Z,2.03
2022-08-09T12:10:48.454Z,1.40
2022-08-09T12:12:28.759Z,1.80
2022-08-09T12:14:07.333Z,1.63
2022-08-09T12:15:48.885Z,1.80
2022-08-09T12:17:34.519Z,1.70
2022-08-09T12:18:57.981Z,1.87
2022-08-09T12:20:23.118Z,1.60
2022-08-09T12:21:51.514Z,1.63
2022-08-09T12:23:14.046Z,1.87
2022-08-09T12:24:46.745Z,1.70
2022-08-09T12:26:19.755Z,1.60
2022-08-09T12:29:14.241Z,1.60
2022-08-09T12:29:44.600Z,1.43
2022-08-09T12:31:31.221Z,1.53
2022-08-09T12:33:12.453Z,1.53
2022-08-09T12:34:42.316Z,1.60
2022-08-09T12:36:05.933Z,1.80
2022-08-09T12:37:50.176Z,1.80
2022-08-09T12:39:14.690Z,1.50
2022-08-09T12:40:44.709Z,2.07
2022-08-09T12:42:10.215Z,1.70
2022-08-09T12:44:06.590Z,1.60
2022-08-09T12:45:34.178Z,1.80
2022-08-09T12:47:00.314Z,1.67
2022-08-09T12:48:31.255Z,2.00
2022-08-09T12:50:19.813Z,1.53
2022-08-09T12:52:02.511Z,1.80
2022-08-09T12:53:40.728Z,1.93
2022-08-09T12:56:16.204Z,1.57
2022-08-09T12:56:54.083Z,2.20
2022-08-09T12:58:27.212Z,1.73
2022-08-09T13:00:02.118Z,2.03
2022-08-09T13:01:28.401Z,1.70
2022-08-09T13:03:02.046Z,2.10
2022-08-09T13:04:36.022Z,2.00
2022-08-09T13:06:14.549Z,1.47
2022-08-09T13:07:50.763Z,1.80
2022-08-09T13:09:25.205Z,1.53
2022-08-09T13:10:52.512Z,2.20
2022-08-09T13:12:14.772Z,1.83
2022-08-09T13:14:42.138Z,2.00
2022-08-09T13:15:26.536Z,2.07
2022-08-09T13:16:52.806Z,2.00
2022-08-09T13:18:17.488Z,1.80
2022-08-09T13:20:10.636Z,2.07
2022-08-09T13:22:36.962Z,1.60
2022-08-09T13:24:07.123Z,1.80
2022-08-09T13:24:54.871Z,2.60
2022-08-09T13:26:36.882Z,2.23
2022-08-09T13:28:08.890Z,1.47
2022-08-09T13:30:02.634Z,1.97
2022-08-09T13:32:14.340Z,1.73
2022-08-09T13:32:57.041Z,2.07
2022-08-09T13:34:20.737Z,1.73
2022-08-09T13:36:39.553Z,1.50
2022-08-09T13:37:50.655Z,2.10
2022-08-09T13:41:18.989Z,2.00
2022-08-09T13:41:50.969Z,1.90
2022-08-09T13:42:45.237Z,2.13
2022-08-09T13:44:08.217Z,1.97
2022-08-09T13:46:07.387Z,1.77
2022-08-09T13:47:27.537Z,1.80
2022-08-09T13:48:55.520Z,2.13
2022-08-09T13:50:31.096Z,1.80
2022-08-09T13:52:00.633Z,2.20
2022-08-09T13:53:27.114Z,1.97
2022-08-09T13:55:07.511Z,1.93
2022-08-09T13:56:35.814Z,2.10
2022-08-09T13:58:01.993Z,1.90
2022-08-09T13:59:27.159Z,1.97
2022-08-09T14:01:04.327Z,1.77
2022-08-09T14:02:30.002Z,1.77
2022-08-09T14:04:01.852Z,2.30
2022-08-09T14:05:58.426Z,1.67
2022-08-09T14:07:08.730Z,1.90
2022-08-09T14:08:32.874Z,2.07
2022-08-09T14:09:55.051Z,1.90
2022-08-09T14:11:18.071Z,1.70
2022-08-09T14:12:40.611Z,1.80
2022-08-09T14:14:22.194Z,1.77
2022-08-09T14:16:10.491Z,2.10
2022-08-09T14:17:41.308Z,1.90
2022-08-09T14:19:09.638Z,2.17
2022-08-09T14:20:31.740Z,1.73
2022-08-09T14:21:54.571Z,2.40
2022-08-09T14:23:20.333Z,1.80
2022-08-09T14:24:58.957Z,1.80
2022-08-09T14:26:23.238Z,1.60
2022-08-09T14:27:56.945Z,2.00
2022-08-09T14:30:04.595Z,2.30
2022-08-09T14:31:04.016Z,1.90
2022-08-09T14:32:30.695Z,1.47
2022-08-09T14:33:54.579Z,1.67
2022-08-09T14:35:19.530Z,1.90
2022-08-09T14:36:45.487Z,2.30
2022-08-09T14:38:10.948Z,1.80
2022-08-09T14:39:40.407Z,1.67
2022-08-09T14:41:26.523Z,2.03
2022-08-09T14:42:52.903Z,1.77
2022-08-09T14:44:15.214Z,1.50
2022-08-09T14:46:57.015Z,2.13
2022-08-09T14:47:41.239Z,1.47
2022-08-09T14:49:02.459Z,1.70
2022-08-09T14:50:25.878Z,1.70
2022-08-09T14:51:49.204Z,2.40
2022-08-09T14:53:15.537Z,1.97
2022-08-09T14:54:39.809Z,2.07
2022-08-09T14:56:04.640Z,1.70
2022-08-09T14:57:32.116Z,1.97
2022-08-09T14:59:05.861Z,1.70
2022-08-09T15:00:37.659Z,1.67
2022-08-09T15:02:04.761Z,1.67
2022-08-09T15:03:27.850Z,1.40
2022-08-09T15:04:50.377Z,1.70
2022-08-09T15:06:13.508Z,1.60
2022-08-09T15:07:37.228Z,1.60
2022-08-09T15:08:59.351Z,1.47
2022-08-09T15:10:21.791Z,1.73
2022-08-09T15:11:49.624Z,2.20
2022-08-09T15:13:13.197Z,1.20
2022-08-09T15:14:38.472Z,1.93
2022-08-09T15:16:00.840Z,1.67
2022-08-09T15:17:23.263Z,1.47
2022-08-09T15:18:49.591Z,2.00
2022-08-09T15:20:15.458Z,1.40
2022-08-09T15:22:02.137Z,1.77
2022-08-09T15:23:55.932Z,1.63
2022-08-09T15:25:08.245Z,1.83
2022-08-09T15:26:31.699Z,1.73
2022-08-09T15:28:00.859Z,1.50
2022-08-09T15:30:58.149Z,1.47
2022-08-09T15:31:10.149Z,1.60
2022-08-09T15:32:37.094Z,1.17
2022-08-09T15:34:19.617Z,1.70
2022-08-09T15:35:44.785Z,1.10
2022-08-09T15:37:56.351Z,1.70
2022-08-09T15:39:22.807Z,1.50
2022-08-09T15:40:45.169Z,1.60
2022-08-09T15:42:08.427Z,1.90
2022-08-09T15:43:37.130Z,1.80
2022-08-09T15:45:03.299Z,1.60
2022-08-09T15:46:34.533Z,1.67
2022-08-09T15:48:05.283Z,1.60
2022-08-09T15:49:35.183Z,1.83
2022-08-09T15:51:00.877Z,2.00
2022-08-09T15:52:23.607Z,2.03
2022-08-09T15:54:04.321Z,1.47
2022-08-09T15:55:30.093Z,1.50
2022-08-09T15:56:57.595Z,2.50
2022-08-09T15:58:26.493Z,2.10
2022-08-09T15:59:51.938Z,1.87
2022-08-09T16:01:14.391Z,1.77
2022-08-09T16:02:36.647Z,1.10
2022-08-09T16:03:58.838Z,1.40
2022-08-09T16:05:22.589Z,1.67
2022-08-09T16:06:50.541Z,1.73
2022-08-09T16:08:29.670Z,1.90
2022-08-09T16:10:04.534Z,1.87
2022-08-09T16:11:28.743Z,1.83
2022-08-09T16:12:53.489Z,1.60
2022-08-09T16:14:16.377Z,1.70
2022-08-09T16:16:09.856Z,2.20
2022-08-09T16:17:29.136Z,2.03
2022-08-09T16:18:51.395Z,2.07
2022-08-09T16:20:15.484Z,1.40
2022-08-09T16:21:39.468Z,1.80
2022-08-09T16:23:02.716Z,1.90
2022-08-09T16:24:33.694Z,1.27
2022-08-09T16:26:01.065Z,1.30
2022-08-09T16:27:24.966Z,1.67
2022-08-09T16:28:52.063Z,1.40
2022-08-09T16:30:15.421Z,1.70
2022-08-09T16:32:12.615Z,1.17
2022-08-09T16:33:34.974Z,1.50
2022-08-09T16:35:00.987Z,1.53
2022-08-09T16:36:26.569Z,1.40
2022-08-09T16:37:55.541Z,1.73
2022-08-09T16:39:19.013Z,1.80
2022-08-09T16:40:43.727Z,1.60
2022-08-09T16:42:07.937Z,1.83
2022-08-09T16:43:30.203Z,1.50
2022-08-09T16:44:52.316Z,2.37
2022-08-09T16:46:18.399Z,1.93
2022-08-09T16:48:40.192Z,1.73
2022-08-09T16:50:31.253Z,1.60
2022-08-09T16:51:14.408Z,1.93
2022-08-09T16:52:37.205Z,1.50
2022-08-09T16:55:58.547Z,1.97
2022-08-09T16:57:23.771Z,3.13
2022-08-09T16:58:50.593Z,2.20
2022-08-09T17:00:14.752Z,2.27
2022-08-09T17:01:37.100Z,2.80
2022-08-09T17:03:00.937Z,2.30
2022-08-09T17:04:28.444Z,2.20
2022-08-09T17:06:03.479Z,1.53
2022-08-09T17:08:43.077Z,2.70
2022-08-09T17:09:45.243Z,2.20
2022-08-09T17:10:56.500Z,2.13
2022-08-09T17:12:19.649Z,2.10
2022-08-09T17:13:45.062Z,1.70
2022-08-09T17:15:30.821Z,1.67
2022-08-09T17:16:51.545Z,2.00
2022-08-09T17:18:13.642Z,1.70
2022-08-09T17:20:05.179Z,1.63
2022-08-09T17:21:19.617Z,2.63
2022-08-09T17:22:49.741Z,2.03
2022-08-09T17:24:27.071Z,1.93
2022-08-09T17:25:52.845Z,3.00
2022-08-09T17:27:15.681Z,3.60
2022-08-09T17:28:37.880Z,2.93
2022-08-09T17:30:06.711Z,1.90
2022-08-09T17:31:29.953Z,2.00
2022-08-09T17:33:05.535Z,1.90
2022-08-09T17:35:01.585Z,1.60
2022-08-09T17:36:26.552Z,1.90
2022-08-09T17:38:11.799Z,2.00
2022-08-09T17:39:53.356Z,2.20
2022-08-09T17:41:13.897Z,1.97
2022-08-09T17:42:42.107Z,2.13
2022-08-09T17:44:38.852Z,1.97
2022-08-09T17:46:03.092Z,2.47
2022-08-09T17:47:28.725Z,2.10
2022-08-09T17:48:52.904Z,1.77
2022-08-09T17:50:17.187Z,2.30
2022-08-09T17:51:47.603Z,3.07
2022-08-09T17:53:19.615Z,1.93
2022-08-09T17:54:44.711Z,2.03
2022-08-09T17:56:12.398Z,2.03
2022-08-09T17:58:02.927Z,1.70
2022-08-09T17:59:17.954Z,2.23
2022-08-09T18:00:44.190Z,1.83
2022-08-09T18:02:12.883Z,1.90
2022-08-09T18:03:43.645Z,1.80
2022-08-09T18:05:12.991Z,1.90
2022-08-09T18:06:35.611Z,1.80
2022-08-09T18:07:57.756Z,1.77
2022-08-09T18:09:20.884Z,1.97
2022-08-09T18:10:46.191Z,1.80
2022-08-09T18:12:40.271Z,2.20
2022-08-09T18:14:13.325Z,1.53
2022-08-09T18:16:05.238Z,2.00
2022-08-09T18:17:27.517Z,2.30
2022-08-09T18:20:56.208Z,2.20
2022-08-09T18:21:00.343Z,2.47
2022-08-09T18:22:25.983Z,2.20
2022-08-09T18:24:10.591Z,2.20
2022-08-09T18:25:52.958Z,1.90
2022-08-09T18:27:33.643Z,2.50
2022-08-09T18:30:39.328Z,2.87
2022-08-09T18:30:47.813Z,2.20
2022-08-09T18:32:11.978Z,1.90
2022-08-09T18:33:36.034Z,1.87
2022-08-09T18:34:58.105Z,2.00
2022-08-09T18:36:25.898Z,2.60
2022-08-09T18:37:55.057Z,2.83
2022-08-09T18:39:17.360Z,2.17
2022-08-09T18:40:40.721Z,2.37
2022-08-09T18:42:08.959Z,2.50
2022-08-09T18:43:35.259Z,2.03
2022-08-09T18:45:01.128Z,2.67
2022-08-09T18:46:50.843Z,2.70
2022-08-09T18:48:06.651Z,2.40
2022-08-09T18:49:32.323Z,2.43
2022-08-09T18:51:06.268Z,2.37
2022-08-09T18:52:34.742Z,2.97
2022-08-09T18:54:02.755Z,2.57
2022-08-09T18:55:55.936Z,2.53
2022-08-09T18:57:13.409Z,2.43
2022-08-09T18:58:36.834Z,2.30
2022-08-09T19:00:03.922Z,2.87
2022-08-09T19:01:26.855Z,2.60
2022-08-09T19:02:51.006Z,2.30
2022-08-09T19:04:13.575Z,3.20
2022-08-09T19:06:02.625Z,2.80
2022-08-09T19:07:17.749Z,2.90
2022-08-09T19:08:39.882Z,2.73
2022-08-09T19:10:17.997Z,3.33
2022-08-09T19:11:40.819Z,2.93
2022-08-09T19:13:23.107Z,3.00
2022-08-09T19:14:51.479Z,3.00
2022-08-09T19:16:20.963Z,3.50
2022-08-09T19:17:52.515Z,3.30
2022-08-09T19:19:23.593Z,3.00
2022-08-09T19:20:52.240Z,3.27
2022-08-09T19:22:19.105Z,3.23
2022-08-09T19:24:32.568Z,2.80
2022-08-09T19:25:42.758Z,3.73
2022-08-09T19:27:07.732Z,3.07
2022-08-09T19:28:30.443Z,2.97
2022-08-09T19:30:25.095Z,3.20
2022-08-09T19:31:45.242Z,3.43
2022-08-09T19:33:14.389Z,2.87
2022-08-09T19:34:45.530Z,3.60
2022-08-09T19:36:11.799Z,3.60
2022-08-09T19:37:54.398Z,3.80
2022-08-09T19:39:17.017Z,3.20
2022-08-09T19:40:42.820Z,3.50
2022-08-09T19:42:06.347Z,3.30
2022-08-09T19:43:58.290Z,3.50
2022-08-09T19:45:11.818Z,3.60
2022-08-09T19:46:50.140Z,3.70
2022-08-09T19:48:13.204Z,3.43
2022-08-09T19:50:09.025Z,3.33
2022-08-09T19:51:17.771Z,3.20
2022-08-09T19:52:49.586Z,2.93
2022-08-09T19:54:14.554Z,3.43
2022-08-09T19:56:02.147Z,3.80
2022-08-09T19:57:18.855Z,3.27
2022-08-09T19:59:18.055Z,3.27
2022-08-09T20:00:30.250Z,2.57
2022-08-09T20:02:05.248Z,2.50
2022-08-09T20:04:18.714Z,3.03
2022-08-09T20:05:17.382Z,3.30
2022-08-09T20:06:39.951Z,3.30
2022-08-09T20:08:05.972Z,3.33
2022-08-09T20:09:44.781Z,3.33
2022-08-09T20:11:08.115Z,3.10
2022-08-09T20:12:37.293Z,3.33
2022-08-09T20:14:01.912Z,3.90